Time,TemperatureF,DewpointF,PressureIn,WindDirection,WindDirectionDegrees,WindSpeedMPH,WindSpeedGustMPH,Humidity,HourlyPrecipIn,Conditions,Clouds,dailyrainin,SoftwareType,DateUTC
2013-01-20 00:04:00,45.0,28.0,29.98,WSW,240,15.0,23.0,52,-99.99,,,-99.99,,2013-01-20 05:04:00,
2013-01-20 00:12:00,45.0,28.0,29.98,WSW,250,10.0,23.0,52,-99.99,,,-99.99,,2013-01-20 05:12:00,
2013-01-20 00:22:00,45.0,28.0,29.98,WSW,240,20.0,29.0,52,-99.99,,,-99.99,,2013-01-20 05:22:00,
2013-01-20 00:32:00,45.0,28.0,29.98,WSW,250,14.0,29.0,52,-99.99,,,-99.99,,2013-01-20 05:32:00,
2013-01-20 00:42:00,45.0,28.0,29.98,WSW,240,15.0,29.0,52,-99.99,,,-99.99,,2013-01-20 05:42:00,
2013-01-20 00:53:00,45.0,28.0,29.98,WSW,250,16.0,24.0,52,-99.99,,,-99.99,,2013-01-20 05:53:00,
2013-01-20 01:02:00,45.0,28.0,29.98,WSW,250,16.0,24.0,52,-99.99,,,-99.99,,2013-01-20 06:02:00,
2013-01-20 01:12:00,45.0,28.0,29.98,WSW,250,16.0,23.0,52,-99.99,,,-99.99,,2013-01-20 06:12:00,
2013-01-20 01:22:00,45.0,28.0,29.98,SW,230,13.0,20.0,52,-99.99,,,-99.99,,2013-01-20 06:22:00,
2013-01-20 01:33:00,45.0,28.0,29.97,WSW,240,16.0,21.0,52,-99.99,,,-99.99,,2013-01-20 06:33:00,
2013-01-20 01:42:00,45.0,28.0,29.98,WSW,250,14.0,22.0,52,-99.99,,,-99.99,,2013-01-20 06:42:00,
2013-01-20 01:52:00,45.0,28.0,29.98,WSW,250,13.0,22.0,52,-99.99,,,-99.99,,2013-01-20 06:52:00,
2013-01-20 02:02:00,45.0,28.0,29.98,WSW,250,13.0,22.0,52,-99.99,,,-99.99,,2013-01-20 07:02:00,
2013-01-20 02:12:00,43.0,28.0,29.98,WSW,240,12.0,20.0,56,-99.99,,,-99.99,,2013-01-20 07:12:00,
2013-01-20 02:22:00,43.0,28.0,29.98,WSW,250,12.0,18.0,56,-99.99,,,-99.99,,2013-01-20 07:22:00,
2013-01-20 02:32:00,43.0,28.0,29.99,WSW,250,12.0,17.0,56,-99.99,,,-99.99,,2013-01-20 07:32:00,
2013-01-20 02:42:00,43.0,28.0,29.99,WSW,250,13.0,22.0,56,-99.99,,,-99.99,,2013-01-20 07:42:00,
2013-01-20 02:52:00,43.0,28.0,29.99,WSW,250,10.0,18.0,56,-99.99,,,-99.99,,2013-01-20 07:52:00,
2013-01-20 03:02:00,43.0,28.0,29.99,WSW,250,10.0,18.0,56,-99.99,,,-99.99,,2013-01-20 08:02:00,
2013-01-20 03:12:00,43.0,28.0,29.99,WSW,240,13.0,20.0,56,-99.99,,,-99.99,,2013-01-20 08:12:00,
2013-01-20 03:22:00,43.0,28.0,29.99,WSW,240,10.0,18.0,56,-99.99,,,-99.99,,2013-01-20 08:22:00,
2013-01-20 03:32:00,43.0,30.0,29.99,West,260,10.0,20.0,60,-99.99,,,-99.99,,2013-01-20 08:32:00,
2013-01-20 03:42:00,43.0,30.0,29.99,WSW,250,12.0,20.0,60,-99.99,,,-99.99,,2013-01-20 08:42:00,
2013-01-20 03:52:00,43.0,30.0,30.00,WSW,250,13.0,21.0,60,-99.99,,,-99.99,,2013-01-20 08:52:00,
2013-01-20 04:02:00,43.0,30.0,30.00,WSW,250,13.0,21.0,60,-99.99,,,-99.99,,2013-01-20 09:02:00,
2013-01-20 04:12:00,43.0,30.0,30.01,West,260,9.0,-999.0,60,-99.99,,,-99.99,,2013-01-20 09:12:00,
2013-01-20 04:22:00,43.0,30.0,30.01,West,260,10.0,16.0,60,-99.99,,,-99.99,,2013-01-20 09:22:00,
2013-01-20 04:33:00,41.0,30.0,30.02,West,260,10.0,16.0,65,-99.99,,,-99.99,,2013-01-20 09:33:00,
2013-01-20 04:42:00,41.0,30.0,30.02,West,270,8.0,-999.0,65,-99.99,,,-99.99,,2013-01-20 09:42:00,
2013-01-20 04:52:00,41.0,30.0,30.02,West,260,10.0,16.0,65,-99.99,,,-99.99,,2013-01-20 09:52:00,
2013-01-20 05:02:00,41.0,30.0,30.02,West,260,10.0,16.0,65,-99.99,,,-99.99,,2013-01-20 10:02:00,
2013-01-20 05:12:00,41.0,30.0,30.02,West,270,10.0,16.0,65,-99.99,,,-99.99,,2013-01-20 10:12:00,
2013-01-20 05:22:00,41.0,32.0,30.02,West,270,9.0,16.0,70,-99.99,,,-99.99,,2013-01-20 10:22:00,
2013-01-20 05:32:00,39.0,32.0,30.03,West,270,10.0,-999.0,75,-99.99,,,-99.99,,2013-01-20 10:32:00,
2013-01-20 05:42:00,39.0,32.0,30.03,West,270,9.0,-999.0,75,-99.99,,,-99.99,,2013-01-20 10:42:00,
2013-01-20 05:52:00,41.0,32.0,30.03,West,280,9.0,-999.0,70,-99.99,,,-99.99,,2013-01-20 10:52:00,
2013-01-20 06:03:00,41.0,32.0,30.03,West,280,9.0,-999.0,70,-99.99,,,-99.99,,2013-01-20 11:03:00,
2013-01-20 06:12:00,41.0,30.0,30.04,WNW,290,12.0,17.0,65,-99.99,,,-99.99,,2013-01-20 11:12:00,
2013-01-20 06:22:00,41.0,30.0,30.05,NW,310,9.0,16.0,65,-99.99,,,-99.99,,2013-01-20 11:22:00,
2013-01-20 06:33:00,39.0,28.0,30.05,NW,320,10.0,-999.0,64,-99.99,,,-99.99,,2013-01-20 11:33:00,
2013-01-20 06:42:00,39.0,28.0,30.05,NW,310,13.0,17.0,64,-99.99,,,-99.99,,2013-01-20 11:42:00,
2013-01-20 06:53:00,37.0,27.0,30.06,WNW,300,9.0,18.0,64,-99.99,,,-99.99,,2013-01-20 11:53:00,
2013-01-20 07:03:00,37.0,27.0,30.06,WNW,300,9.0,18.0,64,-99.99,,,-99.99,,2013-01-20 12:03:00,
2013-01-20 07:12:00,37.0,25.0,30.07,NW,310,10.0,16.0,60,-99.99,,,-99.99,,2013-01-20 12:12:00,
2013-01-20 07:23:00,37.0,25.0,30.08,WNW,300,10.0,18.0,60,-99.99,,,-99.99,,2013-01-20 12:23:00,
2013-01-20 07:33:00,37.0,25.0,30.08,WNW,300,14.0,21.0,60,-99.99,,,-99.99,,2013-01-20 12:33:00,
2013-01-20 07:43:00,37.0,25.0,30.09,WNW,300,12.0,21.0,60,-99.99,,,-99.99,,2013-01-20 12:43:00,
2013-01-20 07:52:00,36.0,25.0,30.10,NW,310,14.0,18.0,64,-99.99,,,-99.99,,2013-01-20 12:52:00,
2013-01-20 08:03:00,36.0,25.0,30.10,NW,310,14.0,18.0,64,-99.99,,,-99.99,,2013-01-20 13:03:00,
2013-01-20 08:12:00,36.0,25.0,30.11,NW,320,12.0,-999.0,64,-99.99,,,-99.99,,2013-01-20 13:12:00,
2013-01-20 08:23:00,34.0,21.0,30.12,NW,310,10.0,18.0,59,-99.99,,,-99.99,,2013-01-20 13:23:00,
2013-01-20 08:33:00,34.0,21.0,30.12,NW,310,13.0,-999.0,59,-99.99,,,-99.99,,2013-01-20 13:33:00,
2013-01-20 08:43:00,34.0,18.0,30.14,NW,310,12.0,17.0,51,-99.99,,,-99.99,,2013-01-20 13:43:00,
2013-01-20 08:52:00,34.0,16.0,30.14,WNW,300,12.0,17.0,47,-99.99,,,-99.99,,2013-01-20 13:52:00,
2013-01-20 09:02:00,34.0,16.0,30.14,WNW,300,12.0,17.0,47,-99.99,,,-99.99,,2013-01-20 14:02:00,
2013-01-20 09:12:00,32.0,14.0,30.15,NW,310,10.0,18.0,46,-99.99,,,-99.99,,2013-01-20 14:12:00,
2013-01-20 09:23:00,34.0,9.0,30.16,NW,320,16.0,21.0,34,-99.99,,,-99.99,,2013-01-20 14:23:00,
2013-01-20 09:33:00,34.0,9.0,30.17,WNW,300,13.0,18.0,34,-99.99,,,-99.99,,2013-01-20 14:33:00,
2013-01-20 09:43:00,34.0,7.0,30.17,NW,310,12.0,18.0,31,-99.99,,,-99.99,,2013-01-20 14:43:00,
2013-01-20 09:53:00,34.0,7.0,30.18,NW,310,13.0,21.0,31,-99.99,,,-99.99,,2013-01-20 14:53:00,
2013-01-20 10:03:00,34.0,7.0,30.18,NW,310,13.0,21.0,31,-99.99,,,-99.99,,2013-01-20 15:03:00,
2013-01-20 10:12:00,34.0,7.0,30.19,WNW,290,13.0,21.0,31,-99.99,,,-99.99,,2013-01-20 15:12:00,
2013-01-20 10:23:00,34.0,7.0,30.19,NW,310,10.0,21.0,31,-99.99,,,-99.99,,2013-01-20 15:23:00,
2013-01-20 10:33:00,34.0,7.0,30.20,WNW,290,10.0,22.0,31,-99.99,,,-99.99,,2013-01-20 15:33:00,
2013-01-20 10:42:00,34.0,7.0,30.20,WNW,300,10.0,20.0,31,-99.99,,,-99.99,,2013-01-20 15:42:00,
2013-01-20 10:53:00,34.0,9.0,30.21,WNW,290,14.0,18.0,34,-99.99,,,-99.99,,2013-01-20 15:53:00,
2013-01-20 11:03:00,34.0,9.0,30.21,WNW,290,14.0,18.0,34,-99.99,,,-99.99,,2013-01-20 16:03:00,
2013-01-20 11:12:00,34.0,9.0,30.22,NW,310,8.0,12.0,34,-99.99,,,-99.99,,2013-01-20 16:12:00,
2013-01-20 11:23:00,34.0,9.0,30.22,WNW,290,13.0,16.0,34,-99.99,,,-99.99,,2013-01-20 16:23:00,
2013-01-20 11:33:00,34.0,9.0,30.22,WNW,290,14.0,17.0,34,-99.99,,,-99.99,,2013-01-20 16:33:00,
2013-01-20 11:43:00,34.0,9.0,30.22,NW,310,12.0,17.0,34,-99.99,,,-99.99,,2013-01-20 16:43:00,
2013-01-20 11:52:00,34.0,9.0,30.22,WNW,300,9.0,18.0,34,-99.99,,,-99.99,,2013-01-20 16:52:00,
2013-01-20 12:03:00,34.0,9.0,30.22,WNW,300,9.0,18.0,34,-99.99,,,-99.99,,2013-01-20 17:03:00,
2013-01-20 12:13:00,34.0,10.0,30.21,NW,320,9.0,-999.0,37,-99.99,,,-99.99,,2013-01-20 17:13:00,
2013-01-20 12:22:00,36.0,10.0,30.21,WNW,300,9.0,-999.0,34,-99.99,,,-99.99,,2013-01-20 17:22:00,
2013-01-20 12:33:00,36.0,10.0,30.20,WNW,300,9.0,-999.0,34,-99.99,,,-99.99,,2013-01-20 17:33:00,
2013-01-20 12:42:00,36.0,10.0,30.21,NW,310,7.0,-999.0,34,-99.99,,,-99.99,,2013-01-20 17:42:00,
2013-01-20 12:52:00,36.0,10.0,30.19,WNW,290,9.0,-999.0,34,-99.99,,,-99.99,,2013-01-20 17:52:00,
2013-01-20 13:03:00,36.0,10.0,30.19,WNW,290,9.0,-999.0,34,-99.99,,,-99.99,,2013-01-20 18:03:00,
2013-01-20 13:13:00,36.0,10.0,30.19,NW,310,9.0,-999.0,34,-99.99,,,-99.99,,2013-01-20 18:13:00,
2013-01-20 13:23:00,36.0,9.0,30.19,NNW,330,6.0,-999.0,31,-99.99,,,-99.99,,2013-01-20 18:23:00,
2013-01-20 13:33:00,36.0,9.0,30.19,WNW,290,6.0,-999.0,31,-99.99,,,-99.99,,2013-01-20 18:33:00,
2013-01-20 13:43:00,36.0,10.0,30.19,West,270,8.0,-999.0,34,-99.99,,,-99.99,,2013-01-20 18:43:00,
2013-01-20 13:53:00,36.0,10.0,30.18,WNW,300,9.0,-999.0,34,-99.99,,,-99.99,,2013-01-20 18:53:00,
2013-01-20 14:03:00,36.0,10.0,30.18,WNW,300,9.0,-999.0,34,-99.99,,,-99.99,,2013-01-20 19:03:00,
2013-01-20 14:12:00,36.0,9.0,30.18,WNW,300,9.0,-999.0,31,-99.99,,,-99.99,,2013-01-20 19:12:00,
2013-01-20 14:22:00,37.0,9.0,30.18,WNW,300,9.0,18.0,29,-99.99,,,-99.99,,2013-01-20 19:22:00,
2013-01-20 14:33:00,36.0,7.0,30.18,North,0,0.0,-999.0,29,-99.99,,,-99.99,,2013-01-20 19:33:00,
2013-01-20 14:43:00,37.0,7.0,30.18,WNW,290,7.0,-999.0,27,-99.99,,,-99.99,,2013-01-20 19:43:00,
2013-01-20 14:52:00,37.0,9.0,30.17,WNW,290,7.0,-999.0,29,-99.99,,,-99.99,,2013-01-20 19:52:00,
2013-01-20 15:03:00,37.0,9.0,30.17,WNW,290,7.0,-999.0,29,-99.99,,,-99.99,,2013-01-20 20:03:00,
2013-01-20 15:12:00,36.0,5.0,30.17,WNW,290,8.0,-999.0,27,-99.99,,,-99.99,,2013-01-20 20:12:00,
2013-01-20 15:23:00,37.0,7.0,30.18,WNW,290,6.0,-999.0,27,-99.99,,,-99.99,,2013-01-20 20:23:00,
2013-01-20 15:33:00,37.0,7.0,30.17,WNW,300,7.0,-999.0,27,-99.99,,,-99.99,,2013-01-20 20:33:00,
2013-01-20 15:42:00,37.0,9.0,30.17,NW,310,6.0,-999.0,29,-99.99,,,-99.99,,2013-01-20 20:42:00,
2013-01-20 15:53:00,37.0,9.0,30.16,WNW,300,3.0,-999.0,29,-99.99,,,-99.99,,2013-01-20 20:53:00,
2013-01-20 16:04:00,37.0,9.0,30.16,WNW,300,3.0,-999.0,29,-99.99,,,-99.99,,2013-01-20 21:04:00,
2013-01-20 16:13:00,37.0,9.0,30.16,West,280,6.0,-999.0,29,-99.99,,,-99.99,,2013-01-20 21:13:00,
2013-01-20 16:23:00,37.0,10.0,30.16,WSW,250,3.0,-999.0,32,-99.99,,,-99.99,,2013-01-20 21:23:00,
2013-01-20 16:33:00,37.0,9.0,30.16,WNW,290,9.0,-999.0,29,-99.99,,,-99.99,,2013-01-20 21:33:00,
2013-01-20 16:43:00,37.0,7.0,30.17,West,270,7.0,-999.0,27,-99.99,,,-99.99,,2013-01-20 21:43:00,
2013-01-20 16:53:00,36.0,5.0,30.16,WNW,300,6.0,-999.0,27,-99.99,,,-99.99,,2013-01-20 21:53:00,
2013-01-20 17:03:00,36.0,5.0,30.16,WNW,300,6.0,-999.0,27,-99.99,,,-99.99,,2013-01-20 22:03:00,
2013-01-20 17:13:00,36.0,7.0,30.17,NNW,340,3.0,-999.0,29,-99.99,,,-99.99,,2013-01-20 22:13:00,
2013-01-20 17:23:00,36.0,7.0,30.18,WNW,300,7.0,-999.0,29,-99.99,,,-99.99,,2013-01-20 22:23:00,
2013-01-20 17:33:00,34.0,7.0,30.18,WNW,300,6.0,-999.0,31,-99.99,,,-99.99,,2013-01-20 22:33:00,
2013-01-20 17:43:00,34.0,7.0,30.18,NW,310,7.0,-999.0,31,-99.99,,,-99.99,,2013-01-20 22:43:00,
2013-01-20 17:52:00,34.0,7.0,30.18,NW,310,6.0,-999.0,31,-99.99,,,-99.99,,2013-01-20 22:52:00,
2013-01-20 18:03:00,34.0,7.0,30.18,NW,310,6.0,-999.0,31,-99.99,,,-99.99,,2013-01-20 23:03:00,
2013-01-20 18:13:00,32.0,7.0,30.19,NW,310,7.0,-999.0,34,-99.99,,,-99.99,,2013-01-20 23:13:00,
2013-01-20 18:23:00,32.0,9.0,30.20,NW,320,6.0,-999.0,36,-99.99,,,-99.99,,2013-01-20 23:23:00,
2013-01-20 18:33:00,30.0,9.0,30.20,NNW,330,7.0,-999.0,39,-99.99,,,-99.99,,2013-01-20 23:33:00,
2013-01-20 18:43:00,30.0,10.0,30.20,NW,320,5.0,-999.0,43,-99.99,,,-99.99,,2013-01-20 23:43:00,
2013-01-20 18:53:00,30.0,10.0,30.20,NW,320,5.0,-999.0,43,-99.99,,,-99.99,,2013-01-20 23:53:00,
2013-01-20 19:03:00,30.0,10.0,30.19,NNW,330,6.0,-999.0,43,-99.99,,,-99.99,,2013-01-21 00:03:00,
2013-01-20 19:13:00,30.0,10.0,30.19,NNW,330,7.0,-999.0,43,-99.99,,,-99.99,,2013-01-21 00:13:00,
2013-01-20 19:23:00,30.0,9.0,30.19,NW,320,6.0,-999.0,39,-99.99,,,-99.99,,2013-01-21 00:23:00,
2013-01-20 19:33:00,30.0,9.0,30.19,NW,310,5.0,-999.0,39,-99.99,,,-99.99,,2013-01-21 00:33:00,
2013-01-20 19:43:00,30.0,10.0,30.19,NW,310,5.0,-999.0,43,-99.99,,,-99.99,,2013-01-21 00:43:00,
2013-01-20 19:53:00,30.0,10.0,30.19,NW,320,3.0,-999.0,43,-99.99,,,-99.99,,2013-01-21 00:53:00,
2013-01-20 20:03:00,30.0,10.0,30.19,NW,320,3.0,-999.0,43,-99.99,,,-99.99,,2013-01-21 01:03:00,
2013-01-20 20:13:00,30.0,10.0,30.18,NW,310,3.0,-999.0,43,-99.99,,,-99.99,,2013-01-21 01:13:00,
2013-01-20 20:23:00,30.0,10.0,30.18,NW,320,5.0,-999.0,43,-99.99,,,-99.99,,2013-01-21 01:23:00,
2013-01-20 20:33:00,30.0,10.0,30.19,NNW,330,3.0,-999.0,43,-99.99,,,-99.99,,2013-01-21 01:33:00,
2013-01-20 20:43:00,30.0,9.0,30.18,NW,320,3.0,-999.0,39,-99.99,,,-99.99,,2013-01-21 01:43:00,
2013-01-20 20:53:00,28.0,9.0,30.18,NW,310,3.0,-999.0,42,-99.99,,,-99.99,,2013-01-21 01:53:00,
2013-01-20 21:03:00,28.0,9.0,30.18,NW,310,3.0,-999.0,42,-99.99,,,-99.99,,2013-01-21 02:03:00,
2013-01-20 21:12:00,28.0,10.0,30.18,NW,320,6.0,-999.0,46,-99.99,,,-99.99,,2013-01-21 02:12:00,
2013-01-20 21:23:00,28.0,10.0,30.18,NNW,330,5.0,-999.0,46,-99.99,,,-99.99,,2013-01-21 02:23:00,
2013-01-20 21:33:00,28.0,10.0,30.18,NNW,330,5.0,-999.0,46,-99.99,,,-99.99,,2013-01-21 02:33:00,
2013-01-20 21:43:00,28.0,10.0,30.18,NNW,330,5.0,-999.0,46,-99.99,,,-99.99,,2013-01-21 02:43:00,
2013-01-20 21:53:00,28.0,10.0,30.17,North,0,0.0,-999.0,46,-99.99,,,-99.99,,2013-01-21 02:53:00,
2013-01-20 22:03:00,28.0,10.0,30.17,North,0,0.0,-999.0,46,-99.99,,,-99.99,,2013-01-21 03:03:00,
2013-01-20 22:13:00,27.0,10.0,30.18,NW,310,3.0,-999.0,49,-99.99,,,-99.99,,2013-01-21 03:13:00,
2013-01-20 22:23:00,27.0,10.0,30.18,NW,310,5.0,-999.0,49,-99.99,,,-99.99,,2013-01-21 03:23:00,
2013-01-20 22:33:00,27.0,12.0,30.18,NW,310,5.0,-999.0,54,-99.99,,,-99.99,,2013-01-21 03:33:00,
2013-01-20 22:43:00,27.0,10.0,30.17,NW,310,5.0,-999.0,49,-99.99,,,-99.99,,2013-01-21 03:43:00,
2013-01-20 22:53:00,27.0,12.0,30.17,NW,310,5.0,-999.0,54,-99.99,,,-99.99,,2013-01-21 03:53:00,
2013-01-20 23:03:00,27.0,12.0,30.17,NW,310,5.0,-999.0,54,-99.99,,,-99.99,,2013-01-21 04:03:00,
2013-01-20 23:12:00,25.0,12.0,30.17,WNW,300,3.0,-999.0,58,-99.99,,,-99.99,,2013-01-21 04:12:00,
2013-01-20 23:23:00,27.0,12.0,30.17,WNW,290,5.0,-999.0,54,-99.99,,,-99.99,,2013-01-21 04:23:00,
2013-01-20 23:33:00,27.0,12.0,30.17,WNW,290,3.0,-999.0,54,-99.99,,,-99.99,,2013-01-21 04:33:00,
2013-01-20 23:43:00,27.0,10.0,30.16,WNW,300,5.0,-999.0,49,-99.99,,,-99.99,,2013-01-21 04:43:00,
2013-01-20 23:53:00,25.0,10.0,30.17,WNW,300,5.0,-999.0,53,-99.99,,,-99.99,,2013-01-21 04:53:00,